Dothan Regional Airport
KDHN : now visible

Airfield :











YOU CAN JOIN US ON...

 
LOGIN :

Register | Disclaimer

   EN    FR    IT 

 









Legend :    VFR   Marginal VFR   IFR   Intensive IFR   Very Intensive IFR
Visi :
Ceiling :
>= 8 km
>= 3000ft
5 to 8 km
1000 to 3000 ft
1500m to 5 km
500 to 1000 ft
800 to 1500m
200 to 500 ft
< 800m
< 200 ft
Symbols :   Thunderstorms  Fog  Heavy snow  Heavy precipitations  Wind > 20 kt






- Airport Elevation : 401 ft
- IATA code : DHN


KDHN - Dothan Regional

CURRENT METAR :
  • 110553Z AUTO 30010KT 10SM CLR 06/02 A3012 RMK AO2 SLP197 T00610022 10100 20056 402060056 51039 $

EXPIRED METARs :
  • 110453Z AUTO 29010KT 10SM CLR 07/03 A3009 RMK AO2 SLP188 T00670028 $
  • 110353Z AUTO 31011KT 10SM CLR 08/03 A3006 RMK AO2 SLP177 T00780033 $
  • 110253Z AUTO 33011KT 10SM CLR 08/04 A3000 RMK AO2 SLP158 T00830044 51003 $
  • 110153Z AUTO 32013G18KT 10SM CLR 09/07 A3000 RMK AO2 SLP157 T00890067 $

TAF KDHN
Valid from the 11 at 06:00 until the 12 at 06:00 UTC


110520Z 1106/1206 30010G17KT P6SM SKC
FM111200 33009KT P6SM SKC
KZJX FIR / North America



MET'MAP, your aeronautical weather chart ! - Copyright ORBIFLY December 2007 - Disclaimer

ORBIFLY MET'MAP TEAM :

Programming & Development : Alexandra Zaïnal
Original concept : Baudouin d'Aumeries
Technical & hardware support : Manuel Goepfert
Assistance : Marc-Olivier Méhu




SOURCES & CREDITS :

   NOAA       Earth
Advisory